Terminal Aerodrome Forecast
Issued by NWS Atlanta, GA

Home | Current Version | Previous Version | Text Only | Print | Product List | Glossary On
Versions: 1 2 3 4 5 6 7 8 9 10 11 12 13 14 15 16 17 18 19 20 21 22 23 24 25 26 27 28 29 30 31
784
FTAK31 PAJN 080109 CCA
TAFAHN
TAF COR
PAHN 080109Z 0801/0824 VRB04KT 6SM -SN BR OVC029
      TEMPO 0801/0803 1SM -SN OVC010
     FM080300 VRB05KT 3SM -SNRA SCT007 OVC015
     FM081200 31006KT P6SM FEW010 SCT015 BKN060
      AMD LTD TO CLD VIS AND WIND=

USA.gov is the U.S. government's official web portal to all federal, state and local government web resources and services.